Time;durP1;ratioP1;P1;durP2;ratioP2;P2;SDS_P1;SDS_P2;PMS_P1;PMS_P2;Temp;Humidity;BMP_temperature;BMP_pressure;BME280_temperature;BME280_humidity;BME280_pressure;Samples;Min_cycle;Max_cycle;Signal;HPM_P1;HPM_P2
2021/08/08 00:01:22;;;;;;;1.27;0.75;;;;;;;19.22;37.23;100032.34;3560531;40;20053;-69
2021/08/08 00:03:50;;;;;;;1.40;0.85;;;;;;;19.20;37.49;100032.53;3562245;40;20041;-70
2021/08/08 00:06:37;;;;;;;1.70;0.80;;;;;;;19.14;37.07;100038.94;3558927;40;20061;-70
2021/08/08 00:09:07;;;;;;;1.77;0.80;;;;;;;19.16;37.30;100039.59;3557507;40;20045;-69
2021/08/08 00:11:35;;;;;;;1.90;0.80;;;;;;;19.12;37.34;100041.03;3560153;40;20037;-70
2021/08/08 00:14:03;;;;;;;1.80;0.90;;;;;;;19.13;37.88;100047.44;3561714;40;20038;-69
2021/08/08 00:16:31;;;;;;;1.70;1.00;;;;;;;19.11;37.99;100039.34;3560912;40;20049;-70
2021/08/08 00:18:59;;;;;;;2.08;0.93;;;;;;;19.13;37.92;100045.53;3562218;40;20068;-69
2021/08/08 00:21:27;;;;;;;2.70;1.38;;;;;;;19.12;38.23;100049.38;3562096;40;20057;-69
2021/08/08 00:23:55;;;;;;;2.75;1.00;;;;;;;19.15;37.85;100054.50;3562058;40;20049;-69
2021/08/08 00:26:25;;;;;;;1.98;1.00;;;;;;;19.17;38.10;100051.53;3564121;40;20425;-69
2021/08/08 00:28:53;;;;;;;2.83;0.93;;;;;;;19.16;38.42;100050.69;3558471;40;20397;-69
2021/08/08 00:31:24;;;;;;;2.35;1.15;;;;;;;19.17;38.59;100048.75;3559621;40;20112;-69
2021/08/08 00:33:55;;;;;;;2.05;1.02;;;;;;;19.19;38.17;100049.38;3562252;40;20060;-69
2021/08/08 00:36:24;;;;;;;1.58;0.90;;;;;;;19.20;38.46;100054.72;3562835;40;20061;-69
2021/08/08 00:38:56;;;;;;;2.15;1.08;;;;;;;19.20;38.46;100048.31;3569434;40;20102;-69
2021/08/08 00:41:27;;;;;;;1.80;1.00;;;;;;;19.20;38.50;100056.66;3561224;40;20080;-70
2021/08/08 00:43:56;;;;;;;2.45;1.00;;;;;;;19.20;37.88;100045.56;3560897;40;20048;-69
2021/08/08 00:46:25;;;;;;;1.77;1.10;;;;;;;19.22;38.03;100053.66;3563256;40;20056;-69
2021/08/08 00:48:53;;;;;;;1.88;1.00;;;;;;;19.19;37.97;100058.56;3562883;40;20393;-69
2021/08/08 00:51:27;;;;;;;1.73;0.90;;;;;;;19.21;38.00;100061.13;3559119;40;20198;-68
2021/08/08 00:53:57;;;;;;;3.75;1.15;;;;;;;19.15;38.49;100059.19;3561327;40;20100;-69
2021/08/08 00:56:28;;;;;;;2.63;1.05;;;;;;;19.18;37.99;100056.84;3558770;40;20054;-70
2021/08/08 00:58:58;;;;;;;2.10;1.00;;;;;;;19.14;38.47;100063.03;3567813;40;20065;-69
2021/08/08 01:01:36;;;;;;;2.05;1.00;;;;;;;19.13;38.67;100066.84;3571636;40;20352;-69
2021/08/08 01:04:11;;;;;;;2.30;1.20;;;;;;;19.11;37.98;100067.06;3561603;40;20038;-69
2021/08/08 01:06:43;;;;;;;1.63;1.02;;;;;;;19.11;38.29;100075.38;3560395;40;20049;-69
2021/08/08 01:09:14;;;;;;;1.40;0.90;;;;;;;19.10;38.26;100068.13;3553044;40;20046;-69
2021/08/08 01:11:44;;;;;;;2.80;0.93;;;;;;;19.09;38.58;100069.22;3570680;40;20108;-69
2021/08/08 01:14:14;;;;;;;3.42;1.10;;;;;;;19.07;38.19;100071.31;3561338;40;20087;-69
2021/08/08 01:16:49;;;;;;;2.20;1.20;;;;;;;19.06;38.51;100068.75;3563371;40;20041;-69
2021/08/08 01:19:22;;;;;;;1.80;1.00;;;;;;;19.04;38.47;100071.72;3569370;40;20053;-69
2021/08/08 01:24:57;;;;;;;1.88;1.00;;;;;;;19.02;38.26;100073.84;3610413;22;20052;-69
2021/08/08 01:27:26;;;;;;;3.38;1.20;;;;;;;19.01;38.17;100071.31;3584530;39;20061;-68
2021/08/08 01:29:54;;;;;;;1.90;1.02;;;;;;;18.98;38.80;100078.09;3578799;40;20038;-70
2021/08/08 01:32:23;;;;;;;1.98;1.00;;;;;;;18.98;38.71;100074.47;3578059;40;20035;-69
2021/08/08 01:34:51;;;;;;;3.03;1.10;;;;;;;18.96;38.19;100079.34;3574160;40;20392;-69
2021/08/08 01:37:25;;;;;;;2.53;1.00;;;;;;;18.93;38.62;100075.09;3564511;40;20151;-70
2021/08/08 01:40:02;;;;;;;3.65;1.00;;;;;;;18.95;39.13;100078.50;3580880;40;20081;-68
2021/08/08 01:42:34;;;;;;;4.07;1.30;;;;;;;18.91;38.34;100087.44;3553471;40;20472;-70
2021/08/08 01:45:04;;;;;;;2.75;1.15;;;;;;;18.88;38.70;100088.72;3569810;40;20122;-69
2021/08/08 01:47:47;;;;;;;3.83;1.40;;;;;;;18.88;38.72;100088.72;3572779;40;20052;-69
2021/08/08 01:50:21;;;;;;;2.53;1.08;;;;;;;18.84;38.37;100081.03;3568534;40;20041;-69
2021/08/08 01:52:50;;;;;;;2.50;1.20;;;;;;;18.83;38.81;100096.78;3574537;40;20049;-70
2021/08/08 01:55:26;;;;;;;2.38;1.00;;;;;;;18.85;38.95;100099.38;3566613;40;20087;-69
2021/08/08 01:57:59;;;;;;;3.17;1.20;;;;;;;18.81;38.48;100101.69;3581081;40;20053;-69
2021/08/08 02:00:29;;;;;;;3.05;1.13;;;;;;;18.78;38.87;100094.63;3579063;40;20042;-68
2021/08/08 02:03:05;;;;;;;2.97;1.20;;;;;;;18.77;38.45;100097.59;3548476;40;20036;-71
2021/08/08 02:05:41;;;;;;;3.22;1.13;;;;;;;18.76;38.58;100093.97;3584547;40;20139;-69
2021/08/08 02:08:12;;;;;;;3.35;1.15;;;;;;;18.77;38.34;100100.34;3580871;39;20438;-69
2021/08/08 02:10:50;;;;;;;2.53;1.23;;;;;;;18.75;38.99;100092.25;3565222;40;20029;-68
2021/08/08 02:13:26;;;;;;;1.80;1.20;;;;;;;18.73;38.45;100099.91;3575376;39;20048;-68
2021/08/08 02:15:56;;;;;;;3.20;1.10;;;;;;;18.71;38.41;100092.84;3581762;40;20040;-70
2021/08/08 02:18:25;;;;;;;3.85;1.40;;;;;;;18.70;38.85;100099.44;3557288;40;20095;-68
2021/08/08 02:20:54;;;;;;;3.22;1.10;;;;;;;18.67;39.18;100105.41;3570410;40;20098;-69
2021/08/08 02:23:23;;;;;;;2.33;1.02;;;;;;;18.67;38.72;100092.41;3579190;40;20052;-69
2021/08/08 02:25:54;;;;;;;3.03;1.30;;;;;;;18.68;38.43;100107.13;3575508;40;20033;-69
2021/08/08 02:28:27;;;;;;;2.80;1.23;;;;;;;18.61;39.09;100108.97;3580123;40;20041;-70
2021/08/08 02:30:55;;;;;;;5.20;1.38;;;;;;;18.59;39.01;100111.09;3578577;40;20038;-69
2021/08/08 02:33:26;;;;;;;2.88;1.35;;;;;;;18.55;38.91;100110.63;3575732;40;20053;-73
2021/08/08 02:35:55;;;;;;;2.53;1.25;;;;;;;18.52;38.61;100113.84;3575403;40;20033;-69
2021/08/08 02:38:27;;;;;;;2.35;1.10;;;;;;;18.47;38.94;100112.72;3564352;40;20036;-70
2021/08/08 02:41:02;;;;;;;3.15;1.33;;;;;;;18.47;38.89;100123.78;3575250;40;20037;-69
2021/08/08 02:43:30;;;;;;;4.20;1.23;;;;;;;18.43;38.92;100118.66;3551607;40;20037;-69
2021/08/08 02:45:58;;;;;;;2.67;1.30;;;;;;;18.40;38.53;100120.97;3571715;40;20034;-72
2021/08/08 02:48:26;;;;;;;2.92;1.48;;;;;;;18.38;39.07;100125.84;3571288;40;20389;-70
2021/08/08 02:50:55;;;;;;;2.20;1.25;;;;;;;18.35;38.57;100129.91;3573939;40;20040;-72
2021/08/08 02:53:25;;;;;;;2.95;1.42;;;;;;;18.31;38.55;100144.31;3564949;40;20049;-68
2021/08/08 02:55:52;;;;;;;3.33;1.05;;;;;;;18.27;38.57;100132.81;3564408;40;20029;-70
2021/08/08 02:58:22;;;;;;;2.72;1.50;;;;;;;18.28;39.22;100139.19;3567423;40;20067;-69
2021/08/08 03:00:51;;;;;;;4.10;1.25;;;;;;;18.25;39.27;100151.53;3572516;40;20506;-70
2021/08/08 03:03:19;;;;;;;2.80;1.50;;;;;;;18.24;38.67;100144.28;3576382;40;20316;-70
2021/08/08 03:05:46;;;;;;;3.38;1.33;;;;;;;18.22;38.82;100154.69;3565484;40;20045;-71
2021/08/08 03:08:16;;;;;;;2.78;1.50;;;;;;;18.21;39.21;100152.97;3564773;40;20313;-71
2021/08/08 03:10:44;;;;;;;3.58;1.17;;;;;;;18.18;38.75;100150.63;3565411;40;20034;-70
2021/08/08 03:13:12;;;;;;;2.30;1.30;;;;;;;18.17;38.73;100159.13;3564334;40;20052;-69
2021/08/08 03:15:44;;;;;;;2.78;1.30;;;;;;;18.18;38.85;100163.59;3564952;40;20049;-70
2021/08/08 03:18:13;;;;;;;3.45;1.40;;;;;;;18.16;38.85;100162.94;3572768;40;20419;-72
2021/08/08 03:20:41;;;;;;;2.28;1.20;;;;;;;18.15;39.26;100170.38;3567677;40;20034;-70
2021/08/08 03:23:09;;;;;;;3.40;1.20;;;;;;;18.14;38.87;100168.66;3565985;40;20044;-70
2021/08/08 03:25:37;;;;;;;2.28;1.35;;;;;;;18.15;38.96;100177.81;3566884;40;20037;-70
2021/08/08 03:28:06;;;;;;;4.45;1.40;;;;;;;18.15;39.27;100178.69;3571243;40;20381;-69
2021/08/08 03:30:34;;;;;;;2.30;1.23;;;;;;;18.17;38.96;100186.78;3576351;40;20058;-69
2021/08/08 03:33:04;;;;;;;3.13;1.27;;;;;;;18.19;39.36;100190.22;3577176;40;20075;-70
2021/08/08 03:35:31;;;;;;;2.65;1.33;;;;;;;18.16;39.33;100183.16;3575904;40;20212;-71
2021/08/08 03:38:01;;;;;;;3.60;1.30;;;;;;;18.17;39.04;100186.78;3566653;40;20046;-70
2021/08/08 03:40:29;;;;;;;2.80;1.30;;;;;;;18.17;38.89;100200.63;3567629;40;20045;-70
2021/08/08 03:42:58;;;;;;;2.90;1.30;;;;;;;18.19;39.08;100198.53;3573724;40;20048;-70
2021/08/08 03:45:26;;;;;;;2.58;1.23;;;;;;;18.20;38.89;100200.22;3566814;40;20304;-70
2021/08/08 03:47:54;;;;;;;3.28;1.48;;;;;;;18.21;39.24;100207.47;3569245;40;20049;-71
2021/08/08 03:50:23;;;;;;;3.25;1.50;;;;;;;18.25;39.00;100209.66;3566211;40;20037;-70
2021/08/08 03:52:51;;;;;;;3.38;1.50;;;;;;;18.25;39.40;100217.13;3566618;40;20037;-70
2021/08/08 03:55:21;;;;;;;4.63;1.58;;;;;;;18.27;39.33;100220.56;3576743;40;20039;-71
2021/08/08 03:57:49;;;;;;;4.03;1.55;;;;;;;18.26;38.92;100227.13;3575630;40;20126;-70
2021/08/08 04:00:21;;;;;;;2.58;1.30;;;;;;;18.25;39.23;100231.81;3576485;40;20037;-71
2021/08/08 04:02:49;;;;;;;3.45;1.42;;;;;;;18.27;39.18;100232.47;3576853;40;20060;-70
2021/08/08 04:05:22;;;;;;;3.53;1.50;;;;;;;18.27;39.32;100238.03;3575171;40;20393;-71
2021/08/08 04:07:51;;;;;;;4.05;1.67;;;;;;;18.29;39.26;100237.78;3566145;40;20045;-71
2021/08/08 04:10:19;;;;;;;4.25;1.50;;;;;;;18.28;39.27;100239.72;3565218;40;20063;-71
2021/08/08 04:12:48;;;;;;;3.90;1.90;;;;;;;18.29;39.27;100238.66;3556387;40;20075;-71
2021/08/08 04:15:19;;;;;;;5.50;2.00;;;;;;;18.28;38.80;100247.16;3556762;40;20040;-71
2021/08/08 04:17:48;;;;;;;4.15;1.75;;;;;;;18.28;38.63;100247.16;3564713;40;20052;-71
2021/08/08 04:20:18;;;;;;;3.53;1.40;;;;;;;18.26;38.92;100247.38;3566794;40;20506;-69
2021/08/08 04:22:47;;;;;;;3.90;1.80;;;;;;;18.27;38.59;100251.00;3578862;40;20040;-69
2021/08/08 04:25:15;;;;;;;3.35;1.75;;;;;;;18.23;38.53;100258.84;3572527;40;20098;-71
2021/08/08 04:27:43;;;;;;;4.50;1.83;;;;;;;18.23;39.22;100266.28;3574748;40;20332;-71
2021/08/08 04:30:12;;;;;;;4.78;1.80;;;;;;;18.22;38.58;100264.56;3574908;40;20470;-71
2021/08/08 04:32:40;;;;;;;4.20;1.73;;;;;;;18.23;38.63;100263.50;3569904;40;20058;-72
2021/08/08 04:35:11;;;;;;;4.15;1.65;;;;;;;18.20;39.05;100269.44;3579736;40;20041;-71
2021/08/08 04:37:40;;;;;;;4.35;1.60;;;;;;;18.18;39.16;100266.88;3556183;40;20689;-69
2021/08/08 04:40:12;;;;;;;3.53;1.73;;;;;;;18.20;39.12;100273.06;3575187;40;20029;-71
2021/08/08 04:42:40;;;;;;;4.18;1.73;;;;;;;18.18;38.54;100274.34;3575311;40;20068;-71
2021/08/08 04:45:09;;;;;;;3.75;1.67;;;;;;;18.17;39.24;100267.94;3576182;40;20032;-70
2021/08/08 04:47:38;;;;;;;3.33;2.10;;;;;;;18.17;39.05;100278.16;3575458;40;20076;-69
2021/08/08 04:50:07;;;;;;;5.55;2.00;;;;;;;18.16;39.08;100279.19;3576527;40;20351;-71
2021/08/08 04:52:37;;;;;;;4.20;1.73;;;;;;;18.15;38.62;100283.88;3575860;40;20241;-70
2021/08/08 04:55:07;;;;;;;4.28;1.80;;;;;;;18.14;38.92;100290.47;3576019;40;20041;-68
2021/08/08 04:57:37;;;;;;;3.17;1.63;;;;;;;18.15;38.83;100297.72;3566463;40;20046;-68
2021/08/08 05:00:06;;;;;;;5.50;1.80;;;;;;;18.14;38.72;100301.53;3575831;40;20378;-71
2021/08/08 05:02:36;;;;;;;4.97;1.73;;;;;;;18.14;39.32;100298.75;3574417;40;20037;-70
2021/08/08 05:05:05;;;;;;;4.95;1.67;;;;;;;18.14;39.16;100296.00;3565869;40;20059;-70
2021/08/08 05:07:38;;;;;;;5.50;1.67;;;;;;;18.17;39.08;100305.81;3565003;40;20094;-71
2021/08/08 05:10:08;;;;;;;4.07;1.60;;;;;;;18.17;38.92;100305.81;3568814;40;20058;-71
2021/08/08 05:12:37;;;;;;;5.32;2.17;;;;;;;18.19;39.37;100307.34;3575548;40;20045;-70
2021/08/08 05:15:06;;;;;;;3.78;1.67;;;;;;;18.17;39.39;100315.00;3575158;40;20029;-71
2021/08/08 05:17:34;;;;;;;3.95;1.50;;;;;;;18.17;39.27;100316.91;3573613;40;20060;-70
2021/08/08 05:20:03;;;;;;;3.10;1.48;;;;;;;18.16;39.37;100316.03;3571682;40;20042;-71
2021/08/08 05:22:31;;;;;;;4.05;1.50;;;;;;;18.15;39.02;100319.88;3574827;40;20063;-71
2021/08/08 05:24:59;;;;;;;5.22;1.92;;;;;;;18.15;39.34;100325.41;3576976;40;20100;-71
2021/08/08 05:27:27;;;;;;;3.80;1.67;;;;;;;18.15;39.22;100324.53;3576176;40;20142;-71
2021/08/08 05:29:59;;;;;;;4.78;1.63;;;;;;;18.16;39.09;100327.13;3575732;40;20062;-71
2021/08/08 05:32:27;;;;;;;5.15;1.80;;;;;;;18.14;39.57;100328.34;3575200;40;20154;-71
2021/08/08 05:34:55;;;;;;;3.30;1.70;;;;;;;18.15;39.44;100328.16;3576686;40;20037;-70
2021/08/08 05:37:23;;;;;;;4.35;1.67;;;;;;;18.13;38.90;100327.50;3579753;40;20049;-69
2021/08/08 05:39:52;;;;;;;3.50;1.30;;;;;;;18.13;39.47;100335.81;3565323;40;20040;-71
2021/08/08 05:42:21;;;;;;;3.65;1.60;;;;;;;18.12;39.40;100338.75;3573574;40;20045;-71
2021/08/08 05:44:49;;;;;;;4.32;1.85;;;;;;;18.09;39.13;100328.94;3565613;40;20038;-70
2021/08/08 05:47:18;;;;;;;4.43;1.88;;;;;;;18.11;39.23;100345.38;3565607;40;20433;-69
2021/08/08 05:49:46;;;;;;;4.65;1.55;;;;;;;18.11;39.48;100345.38;3567244;40;20114;-72
2021/08/08 05:52:14;;;;;;;3.35;1.70;;;;;;;18.10;39.42;100350.03;3572475;40;20029;-71
2021/08/08 05:54:42;;;;;;;2.78;1.40;;;;;;;18.10;39.06;100351.97;3565406;40;20041;-70
2021/08/08 05:57:10;;;;;;;3.72;1.50;;;;;;;18.09;39.17;100350.22;3576534;40;20075;-70
2021/08/08 05:59:37;;;;;;;4.00;1.67;;;;;;;18.07;38.94;100353.19;3574170;40;20031;-69
2021/08/08 06:02:05;;;;;;;4.88;1.60;;;;;;;18.07;38.99;100353.19;3565369;40;20402;-71
2021/08/08 06:04:35;;;;;;;5.63;1.60;;;;;;;18.08;39.37;100365.13;3565850;40;20333;-69
2021/08/08 06:07:03;;;;;;;2.85;1.70;;;;;;;18.06;39.50;100365.31;3565224;40;20087;-72
2021/08/08 06:09:31;;;;;;;5.30;1.52;;;;;;;18.04;39.27;100359.97;3574312;40;20029;-70
2021/08/08 06:11:59;;;;;;;3.00;1.50;;;;;;;18.05;39.24;100372.75;3565714;40;20036;-71
2021/08/08 06:14:27;;;;;;;3.80;1.60;;;;;;;18.05;39.18;100377.44;3542209;40;20345;-71
2021/08/08 06:16:56;;;;;;;4.03;1.52;;;;;;;18.04;39.17;100386.78;3555714;40;20041;-71
2021/08/08 06:19:24;;;;;;;3.20;1.60;;;;;;;18.03;39.23;100374.81;3555745;40;20069;-71
2021/08/08 06:21:53;;;;;;;4.30;1.60;;;;;;;18.07;39.09;100375.34;3564088;40;20100;-70
2021/08/08 06:24:22;;;;;;;3.75;1.77;;;;;;;18.03;39.06;100385.88;3554865;40;20114;-71
2021/08/08 06:26:50;;;;;;;4.80;1.58;;;;;;;18.04;39.35;100387.63;3572344;40;20037;-73
2021/08/08 06:29:18;;;;;;;3.65;1.67;;;;;;;18.03;39.35;100396.13;3562345;40;20394;-68
2021/08/08 06:31:45;;;;;;;3.47;1.42;;;;;;;18.00;39.64;100396.50;3564016;40;20029;-69
2021/08/08 06:34:13;;;;;;;4.10;1.65;;;;;;;17.99;39.36;100394.78;3570039;40;20032;-68
2021/08/08 06:36:41;;;;;;;4.65;1.60;;;;;;;17.97;39.25;100397.72;3566801;40;20053;-70
2021/08/08 06:39:10;;;;;;;4.55;1.80;;;;;;;17.99;39.47;100400.31;3579923;40;20090;-70
2021/08/08 06:41:38;;;;;;;3.05;1.45;;;;;;;17.97;39.26;100396.88;3571115;40;20056;-68
2021/08/08 06:44:08;;;;;;;3.25;1.73;;;;;;;17.98;39.62;100406.91;3570982;40;20042;-69
2021/08/08 06:46:37;;;;;;;3.92;1.60;;;;;;;17.99;39.53;100400.31;3572686;40;20033;-68
2021/08/08 06:49:06;;;;;;;4.95;1.90;;;;;;;17.97;38.93;100405.19;3568840;40;20033;-69
2021/08/08 06:51:34;;;;;;;2.83;1.33;;;;;;;17.96;39.42;100412.63;3579453;40;20116;-67
2021/08/08 06:54:02;;;;;;;4.45;1.58;;;;;;;17.95;39.45;100410.91;3569600;40;20070;-68
2021/08/08 06:56:32;;;;;;;3.45;1.60;;;;;;;17.97;39.58;100410.72;3576021;40;20086;-68
2021/08/08 06:59:00;;;;;;;3.55;1.38;;;;;;;17.97;39.55;100428.19;3578327;40;20692;-69
2021/08/08 07:01:28;;;;;;;3.95;1.73;;;;;;;17.97;39.49;100427.31;3583344;40;20037;-68
2021/08/08 07:03:56;;;;;;;3.63;1.38;;;;;;;17.98;39.25;100434.56;3575195;40;20402;-69
2021/08/08 07:06:24;;;;;;;2.95;1.50;;;;;;;17.99;39.45;100433.53;3584575;40;20039;-67
2021/08/08 07:08:52;;;;;;;3.25;1.50;;;;;;;17.98;39.15;100427.13;3571893;40;20048;-68
2021/08/08 07:11:20;;;;;;;3.33;1.50;;;;;;;17.99;39.58;100444.59;3571945;40;20520;-69
2021/08/08 07:13:50;;;;;;;4.32;1.50;;;;;;;18.00;39.08;100443.56;3579779;40;20044;-68
2021/08/08 07:16:18;;;;;;;3.17;1.50;;;;;;;18.00;39.26;100438.00;3574923;40;20044;-70
2021/08/08 07:18:46;;;;;;;4.78;1.80;;;;;;;18.01;39.34;100439.75;3578610;39;20068;-68
2021/08/08 07:21:21;;;;;;;3.75;1.60;;;;;;;18.05;39.42;100439.19;3631257;22;20130;-83
2021/08/08 07:24:20;;;;;;;4.35;1.50;;;;;;;18.00;39.21;100438.88;3560961;40;20039;-82
2021/08/08 07:26:48;;;;;;;3.10;1.70;;;;;;;18.04;39.76;100455.97;3586847;23;20053;-70
2021/08/08 07:29:18;;;;;;;4.78;1.70;;;;;;;18.08;39.53;100457.31;3568252;40;20133;-70
2021/08/08 07:31:57;;;;;;;3.45;1.35;;;;;;;18.05;39.34;100454.94;3565592;40;20051;-70
2021/08/08 07:34:25;;;;;;;2.75;1.40;;;;;;;18.06;39.48;100462.19;3574308;40;20391;-70
2021/08/08 07:36:54;;;;;;;4.28;1.75;;;;;;;18.06;39.39;100454.75;3563602;40;20053;-70
2021/08/08 07:39:22;;;;;;;4.53;1.70;;;;;;;18.06;38.93;100462.19;3509921;40;20099;-70
2021/08/08 07:41:50;;;;;;;3.25;1.80;;;;;;;18.07;39.64;100463.91;3505945;40;20056;-70
2021/08/08 07:44:20;;;;;;;4.07;1.63;;;;;;;18.08;39.25;100471.16;3538985;40;20315;-70
2021/08/08 07:46:48;;;;;;;3.15;1.40;;;;;;;18.08;39.37;100465.63;3540510;40;20058;-70
2021/08/08 07:49:16;;;;;;;5.47;1.65;;;;;;;18.12;39.31;100472.47;3526981;40;20042;-70
2021/08/08 07:51:44;;;;;;;4.05;1.50;;;;;;;18.16;39.04;100471.06;3532054;40;20133;-70
2021/08/08 07:54:13;;;;;;;4.97;1.90;;;;;;;18.19;39.30;100472.59;3532039;40;20082;-70
2021/08/08 07:56:42;;;;;;;4.60;1.80;;;;;;;18.23;39.00;100485.00;3540866;40;20060;-70
2021/08/08 07:59:10;;;;;;;4.90;1.60;;;;;;;18.27;38.85;100481.66;3539346;40;20433;-70
2021/08/08 08:01:42;;;;;;;4.18;1.48;;;;;;;18.33;38.60;100496.66;3540943;40;20147;-70
2021/08/08 08:04:10;;;;;;;4.03;1.60;;;;;;;18.35;38.87;100489.00;3536549;40;20061;-70
2021/08/08 08:06:41;;;;;;;5.50;1.65;;;;;;;18.37;38.34;100479.44;3506844;40;20566;-70
2021/08/08 08:09:10;;;;;;;7.00;1.90;;;;;;;18.41;38.41;100483.56;3520232;40;20074;-71
2021/08/08 08:11:41;;;;;;;2.80;1.60;;;;;;;18.44;38.49;100483.16;3533658;40;20047;-70
2021/08/08 08:14:10;;;;;;;2.92;1.50;;;;;;;18.47;38.77;100493.00;3531673;40;20034;-72
2021/08/08 08:16:38;;;;;;;3.30;1.60;;;;;;;18.50;38.19;100494.53;3544118;40;20139;-70
2021/08/08 08:19:08;;;;;;;4.50;1.88;;;;;;;18.55;37.88;100492.88;3555813;40;20040;-70
2021/08/08 08:21:36;;;;;;;3.75;1.60;;;;;;;18.56;38.34;100499.28;3562804;40;20663;-70
2021/08/08 08:24:04;;;;;;;3.13;1.30;;;;;;;18.59;37.91;100504.47;3562244;40;20236;-70
2021/08/08 08:26:32;;;;;;;4.63;1.70;;;;;;;18.60;37.91;100511.72;3557498;40;20084;-70
2021/08/08 08:29:00;;;;;;;3.67;1.75;;;;;;;18.62;38.16;100504.06;3562543;40;20042;-71
2021/08/08 08:31:29;;;;;;;4.03;2.00;;;;;;;18.65;38.34;100510.06;3554658;40;20049;-70
2021/08/08 08:33:57;;;;;;;4.07;2.00;;;;;;;18.68;38.27;100517.16;3572348;40;20183;-70
2021/08/08 08:36:26;;;;;;;5.03;1.70;;;;;;;18.73;38.18;100525.72;3574085;40;20057;-70
2021/08/08 08:39:00;;;;;;;5.07;1.80;;;;;;;18.75;37.96;100520.84;3574155;40;20037;-70
2021/08/08 08:41:30;;;;;;;4.22;1.73;;;;;;;18.77;37.53;100516.81;3573774;40;20041;-71
2021/08/08 08:44:00;;;;;;;4.90;1.58;;;;;;;18.80;37.66;100526.69;3573710;40;20064;-70
2021/08/08 08:46:28;;;;;;;5.07;1.65;;;;;;;18.82;37.17;100510.75;3573974;40;20284;-70
2021/08/08 08:48:57;;;;;;;3.10;1.70;;;;;;;18.84;37.80;100522.50;3573422;40;20044;-71
2021/08/08 08:51:31;;;;;;;3.15;1.40;;;;;;;18.90;37.26;100529.16;3572707;40;20068;-70
2021/08/08 08:54:01;;;;;;;5.43;1.65;;;;;;;18.91;37.83;100526.22;3574023;40;20044;-71
2021/08/08 08:56:29;;;;;;;4.68;1.65;;;;;;;18.95;37.36;100524.75;3572443;40;20073;-70
2021/08/08 08:58:58;;;;;;;5.40;1.80;;;;;;;19.00;37.64;100522.25;3573152;40;20056;-70
2021/08/08 09:01:27;;;;;;;4.60;1.60;;;;;;;19.06;37.24;100526.16;3574214;40;20069;-70
2021/08/08 09:03:55;;;;;;;4.63;2.03;;;;;;;19.13;37.17;100527.09;3573678;40;20036;-71
2021/08/08 09:06:24;;;;;;;4.50;1.80;;;;;;;19.21;37.47;100526.97;3582808;40;20065;-70
2021/08/08 09:08:53;;;;;;;4.68;1.70;;;;;;;19.29;36.96;100537.06;3575295;40;20048;-71
2021/08/08 09:11:21;;;;;;;3.47;1.63;;;;;;;19.32;36.66;100533.91;3574772;40;20029;-71
2021/08/08 09:13:52;;;;;;;4.75;1.70;;;;;;;19.38;36.96;100546.97;3575337;40;20056;-70
2021/08/08 09:16:23;;;;;;;4.38;1.67;;;;;;;19.41;36.44;100546.59;3574806;40;20049;-71
2021/08/08 09:18:52;;;;;;;4.95;1.98;;;;;;;19.43;36.12;100548.09;3575665;40;20299;-70
2021/08/08 09:21:24;;;;;;;3.22;1.63;;;;;;;19.44;36.73;100557.28;3576273;40;20049;-71
2021/08/08 09:23:57;;;;;;;6.13;1.95;;;;;;;19.51;36.44;100556.31;3574835;40;20673;-70
2021/08/08 09:26:29;;;;;;;4.32;1.73;;;;;;;19.53;35.71;100561.69;3573779;40;20067;-70
2021/08/08 09:29:09;;;;;;;3.83;1.50;;;;;;;19.59;36.05;100565.59;3565485;40;20041;-71
2021/08/08 09:31:43;;;;;;;3.63;1.60;;;;;;;19.58;35.95;100575.84;3563674;40;20387;-70
2021/08/08 09:34:26;;;;;;;3.30;1.50;;;;;;;19.63;35.90;100567.75;3561696;40;20624;-71
2021/08/08 09:36:57;;;;;;;5.00;1.90;;;;;;;19.61;35.64;100575.41;3563062;40;20183;-70
2021/08/08 09:39:31;;;;;;;3.95;1.65;;;;;;;19.63;35.62;100569.66;3562888;40;20383;-70
2021/08/08 09:42:07;;;;;;;3.92;1.60;;;;;;;19.63;35.36;100572.44;3562124;40;20045;-70
2021/08/08 09:44:35;;;;;;;4.45;1.60;;;;;;;19.61;35.17;100577.31;3562556;40;20053;-71
2021/08/08 09:47:03;;;;;;;3.28;1.48;;;;;;;19.60;35.65;100575.59;3560822;40;20054;-70
2021/08/08 09:49:32;;;;;;;5.10;1.60;;;;;;;19.59;35.23;100571.16;3563835;40;20053;-70
2021/08/08 09:52:00;;;;;;;3.85;1.70;;;;;;;19.58;35.56;100575.84;3562062;40;20041;-70
2021/08/08 09:54:37;;;;;;;3.92;1.60;;;;;;;19.60;34.85;100573.69;3562556;40;20057;-70
2021/08/08 09:57:06;;;;;;;4.22;1.70;;;;;;;19.56;35.21;100575.16;3561943;40;20428;-70
2021/08/08 09:59:34;;;;;;;4.13;1.60;;;;;;;19.54;35.72;100572.56;3563085;40;20068;-70
2021/08/08 10:02:02;;;;;;;3.90;1.50;;;;;;;19.56;35.28;100578.78;3564101;40;20496;-71
2021/08/08 10:04:33;;;;;;;3.90;1.38;;;;;;;19.57;35.48;100579.66;3575735;40;20052;-70
2021/08/08 10:07:05;;;;;;;3.50;1.40;;;;;;;19.63;35.34;100589.09;3573906;40;20087;-71
2021/08/08 10:09:33;;;;;;;5.63;1.60;;;;;;;19.66;35.11;100584.03;3574803;40;20225;-70
2021/08/08 10:12:14;;;;;;;3.78;1.48;;;;;;;19.71;35.04;100580.63;3574352;40;20051;-70
2021/08/08 10:14:43;;;;;;;4.80;1.80;;;;;;;19.68;35.63;100587.44;3575114;40;20064;-70
2021/08/08 10:17:13;;;;;;;4.40;1.70;;;;;;;19.73;35.14;100584.06;3574004;40;20358;-70
2021/08/08 10:19:42;;;;;;;3.08;1.55;;;;;;;19.77;35.28;100591.78;3574900;40;20053;-71
2021/08/08 10:22:10;;;;;;;3.28;1.50;;;;;;;19.78;34.94;100596.28;3571626;40;20053;-70
2021/08/08 10:24:44;;;;;;;2.40;1.20;;;;;;;19.81;35.35;100597.81;3573392;40;20059;-70
2021/08/08 10:27:21;;;;;;;4.47;1.35;;;;;;;19.85;35.06;100586.09;3580381;40;20033;-70
2021/08/08 10:29:50;;;;;;;4.07;1.45;;;;;;;19.89;35.14;100590.22;3575910;40;20060;-70
2021/08/08 10:32:19;;;;;;;3.20;1.60;;;;;;;19.92;35.19;100588.97;3575313;40;20083;-70
2021/08/08 10:34:46;;;;;;;4.32;1.50;;;;;;;19.94;35.27;100582.13;3576759;40;20427;-70
2021/08/08 10:37:15;;;;;;;3.22;1.48;;;;;;;20.02;35.09;100605.25;3575450;40;20327;-71
2021/08/08 10:39:46;;;;;;;4.43;1.70;;;;;;;20.05;35.23;100596.53;3575871;40;20138;-70
2021/08/08 10:42:19;;;;;;;4.18;1.35;;;;;;;20.08;34.60;100604.47;3563695;40;20064;-70
2021/08/08 10:44:48;;;;;;;2.72;1.42;;;;;;;20.09;35.28;100598.69;3576138;40;20416;-70
2021/08/08 10:47:27;;;;;;;3.72;1.50;;;;;;;20.17;34.76;100586.59;3574837;40;20069;-70
2021/08/08 10:49:55;;;;;;;2.95;1.20;;;;;;;20.18;34.37;100600.25;3576532;40;20029;-70
2021/08/08 10:52:23;;;;;;;4.15;1.60;;;;;;;20.20;34.44;100591.75;3563496;40;20034;-70
2021/08/08 10:54:53;;;;;;;2.85;1.38;;;;;;;20.22;34.44;100604.41;3576321;40;20036;-70
2021/08/08 10:57:22;;;;;;;2.88;1.25;;;;;;;20.26;34.32;100600.16;3563108;40;20046;-70
2021/08/08 10:59:51;;;;;;;3.10;1.08;;;;;;;20.29;34.05;100601.66;3576557;40;20095;-71
2021/08/08 11:02:26;;;;;;;2.97;1.70;;;;;;;20.35;33.77;100602.78;3563418;40;20044;-69
2021/08/08 11:04:56;;;;;;;2.38;1.20;;;;;;;20.33;33.62;100599.34;3582286;40;20119;-69
2021/08/08 11:07:27;;;;;;;4.38;1.60;;;;;;;20.35;33.67;100603.63;3576532;40;20052;-70
2021/08/08 11:09:56;;;;;;;2.92;1.40;;;;;;;20.33;33.76;100597.44;3577173;40;20037;-68
2021/08/08 11:12:33;;;;;;;3.80;1.40;;;;;;;20.36;33.77;100594.25;3562868;40;20434;-71
2021/08/08 11:15:01;;;;;;;3.28;1.20;;;;;;;20.34;33.73;100601.09;3575915;40;20037;-71
2021/08/08 11:17:29;;;;;;;2.50;1.20;;;;;;;20.34;33.18;100609.41;3562210;40;20053;-71
2021/08/08 11:19:57;;;;;;;2.65;1.25;;;;;;;20.32;33.78;100615.16;3575971;40;20069;-71
2021/08/08 11:22:25;;;;;;;2.78;1.30;;;;;;;20.30;33.46;100600.63;3576996;40;20206;-70
2021/08/08 11:24:59;;;;;;;2.45;1.05;;;;;;;20.33;33.27;100602.13;3576330;40;20106;-70
2021/08/08 11:27:34;;;;;;;2.35;1.30;;;;;;;20.35;33.81;100608.31;3575799;40;20142;-68
2021/08/08 11:30:03;;;;;;;2.10;1.10;;;;;;;20.33;33.51;100611.34;3576762;40;20030;-70
2021/08/08 11:32:32;;;;;;;2.58;1.35;;;;;;;20.37;33.70;100595.97;3566813;40;20041;-71
2021/08/08 11:35:02;;;;;;;3.20;1.30;;;;;;;20.41;33.69;100605.63;3576247;40;20165;-68
2021/08/08 11:37:31;;;;;;;2.97;1.40;;;;;;;20.43;33.53;100603.47;3575958;40;20081;-71
2021/08/08 11:39:59;;;;;;;3.95;1.35;;;;;;;20.45;33.51;100609.69;3576282;40;20036;-70